If you wish to contribute or participate in the discussions about articles you are invited to join SKYbrary as a registered user

 Actions

Cherbourg-Maupertus Airport

From SKYbrary Wiki

LFRC /
Revision as of 20:15, 16 February 2015 by Timo.Kouwenhoven (talk | contribs) (LF Airports CSV import)
(diff) ← Older revision | Latest revision (diff) | Newer revision → (diff)
Airport
ICAO: LFRC – IATA: CER
Summary
Name Cherbourg-Maupertus Airport
Region Europe
Territory France FR.gif
Location , Basse-Normandie
Serving Cherbourg
Elevation 139.903 m
459 ft
459 ft139.903 m
Type medium airport
Coordinates 49° 39' 0.38" N, 1° 28' 13.01" W
Runways
Designator Length Width Surface ROPS
10/28 2440 m8,005.249 ft
45 m147.638 ft
ASP /


METAR
Observation LFRC 200600Z AUTO 25007KT CAVOK 12/11 Q1023 NOSIG
Station Cherbourg / Maupertus
Date/Time 20 August 2019 06:00:00
Wind direction 250°
Wind speed 07 kts
Lowest cloud amount clouds and visibility OK
Temperature 12°C
Dew point 11°C
Humidity 93%
QNH 1023 hPa
Weather condition n/a